Time;durP1;ratioP1;P1;durP2;ratioP2;P2;SDS_P1;SDS_P2;PMS_P1;PMS_P2;Temp;Humidity;BMP_temperature;BMP_pressure;BME280_temperature;BME280_humidity;BME280_pressure;Samples;Min_cycle;Max_cycle;Signal;HPM_P1;HPM_P2
2022/03/03 00:00:24;;;;;;;45.38;23.63;;;;;;;6.03;59.21;101193.84;4935475;29;20414;-80
2022/03/03 00:02:52;;;;;;;48.33;23.75;;;;;;;5.90;58.64;101187.53;4936225;29;20522;-80
2022/03/03 00:05:20;;;;;;;46.00;25.15;;;;;;;5.75;58.79;101189.84;4935600;29;20047;-79
2022/03/03 00:07:48;;;;;;;45.03;22.63;;;;;;;5.64;59.19;101205.88;4935878;29;20047;-80
2022/03/03 00:10:16;;;;;;;44.38;23.92;;;;;;;5.60;59.38;101198.44;4935589;29;20062;-80
2022/03/03 00:12:44;;;;;;;49.05;22.65;;;;;;;5.75;59.10;101196.13;4935635;29;20066;-80
2022/03/03 00:15:12;;;;;;;44.35;22.83;;;;;;;5.73;57.80;101202.84;4935628;29;20059;-80
2022/03/03 00:17:40;;;;;;;47.25;23.45;;;;;;;5.72;57.58;101202.00;4936160;29;20407;-80
2022/03/03 00:20:08;;;;;;;40.33;22.50;;;;;;;5.71;58.18;101204.97;4934921;29;20048;-80
2022/03/03 00:22:36;;;;;;;41.35;21.92;;;;;;;5.62;57.88;101194.41;4935638;29;20055;-80
2022/03/03 00:25:05;;;;;;;41.53;21.83;;;;;;;5.58;57.62;101193.22;4934271;29;20058;-80
2022/03/03 00:27:34;;;;;;;39.53;20.65;;;;;;;5.67;57.06;101201.06;4935366;29;20046;-80
2022/03/03 00:30:03;;;;;;;39.58;20.98;;;;;;;5.79;56.61;101204.63;4934694;29;20051;-80
2022/03/03 00:32:30;;;;;;;47.08;22.33;;;;;;;5.81;56.96;101209.84;4934760;29;20479;-80
2022/03/03 00:34:58;;;;;;;41.53;20.85;;;;;;;5.72;58.02;101195.75;4934579;29;20054;-79
2022/03/03 00:37:27;;;;;;;42.70;22.67;;;;;;;5.63;58.68;101204.22;4933843;29;20048;-80
2022/03/03 00:39:55;;;;;;;40.63;21.38;;;;;;;5.55;59.22;101196.41;4934756;29;20514;-80
2022/03/03 00:42:22;;;;;;;38.40;21.17;;;;;;;5.53;59.56;101198.53;4934819;29;20048;-80
2022/03/03 00:44:50;;;;;;;39.05;22.20;;;;;;;5.47;58.84;101202.19;4918801;29;20055;-80
2022/03/03 00:47:18;;;;;;;44.53;22.02;;;;;;;5.59;58.39;101197.63;4935387;29;20059;-80
2022/03/03 00:49:46;;;;;;;41.30;20.63;;;;;;;5.67;58.03;101201.06;4935120;29;20074;-80
2022/03/03 00:52:14;;;;;;;36.45;20.23;;;;;;;5.56;58.29;101192.63;4935546;29;20040;-80
2022/03/03 00:54:42;;;;;;;42.78;21.48;;;;;;;5.52;60.05;101202.28;4934295;29;20051;-80
2022/03/03 00:57:10;;;;;;;40.03;20.73;;;;;;;5.44;60.18;101194.47;4946465;29;20055;-80
2022/03/03 00:59:38;;;;;;;38.97;21.80;;;;;;;5.38;60.51;101194.34;4936596;29;20039;-80
2022/03/03 01:02:06;;;;;;;39.25;21.27;;;;;;;5.37;60.89;101192.69;4926213;29;20521;-80
2022/03/03 01:04:34;;;;;;;35.72;20.52;;;;;;;5.41;59.41;101192.22;4934236;29;20051;-80
2022/03/03 01:07:02;;;;;;;46.67;22.27;;;;;;;5.61;59.53;101187.34;4934565;29;20053;-80
2022/03/03 01:09:29;;;;;;;42.22;22.83;;;;;;;5.53;60.17;101187.69;4934272;29;20048;-80
2022/03/03 01:11:57;;;;;;;41.92;21.67;;;;;;;5.45;60.64;101186.13;4934329;29;20050;-80
2022/03/03 01:14:25;;;;;;;42.13;21.38;;;;;;;5.35;60.70;101173.09;4934160;29;20044;-80
2022/03/03 01:16:53;;;;;;;39.50;20.00;;;;;;;5.31;60.64;101171.91;4935172;29;20372;-80
2022/03/03 01:19:21;;;;;;;39.20;20.48;;;;;;;5.26;60.48;101177.19;4934621;29;20078;-80
2022/03/03 01:21:49;;;;;;;43.28;21.20;;;;;;;5.28;61.07;101164.19;4934746;29;20063;-80
2022/03/03 01:24:17;;;;;;;39.80;21.23;;;;;;;5.36;60.82;101169.31;4934001;29;20082;-80
2022/03/03 01:26:45;;;;;;;39.50;20.27;;;;;;;5.48;59.73;101172.06;4934816;29;20521;-80
2022/03/03 01:29:13;;;;;;;41.67;21.77;;;;;;;5.63;59.74;101168.09;4924797;29;20055;-80
2022/03/03 01:31:41;;;;;;;45.20;22.23;;;;;;;5.51;61.27;101162.63;4937963;29;20400;-80
2022/03/03 01:34:09;;;;;;;44.42;22.92;;;;;;;5.46;60.96;101167.91;4937937;29;20120;-80
2022/03/03 01:36:37;;;;;;;39.42;22.23;;;;;;;5.47;61.47;101161.47;4938416;29;20047;-80
2022/03/03 01:39:06;;;;;;;39.63;21.92;;;;;;;5.38;61.27;101161.75;4937899;29;20071;-80
2022/03/03 01:41:34;;;;;;;40.30;22.30;;;;;;;5.30;61.42;101151.25;4937584;29;20055;-81
2022/03/03 01:44:03;;;;;;;36.45;22.23;;;;;;;5.25;61.60;101159.25;4937478;29;20054;-80
2022/03/03 01:46:31;;;;;;;42.70;21.40;;;;;;;5.22;62.02;101148.84;4937848;29;20052;-80
2022/03/03 01:48:59;;;;;;;42.92;22.98;;;;;;;5.16;62.74;101141.63;4937590;29;20051;-80
2022/03/03 01:51:27;;;;;;;52.17;24.27;;;;;;;5.08;62.75;101145.50;4920745;29;20051;-80
2022/03/03 01:53:55;;;;;;;54.42;23.67;;;;;;;5.04;63.16;101136.97;4937768;29;20514;-80
2022/03/03 01:56:23;;;;;;;41.50;22.38;;;;;;;5.03;64.54;101135.31;4936878;29;20056;-80
2022/03/03 01:58:51;;;;;;;40.47;21.90;;;;;;;5.00;63.76;101138.50;4920990;29;20062;-80
2022/03/03 02:01:19;;;;;;;44.15;23.92;;;;;;;4.99;63.17;101123.28;4937355;29;20063;-80
2022/03/03 02:03:47;;;;;;;44.25;21.98;;;;;;;5.17;62.25;101124.28;4937958;29;20055;-80
2022/03/03 02:06:15;;;;;;;43.78;21.85;;;;;;;5.35;61.75;101126.94;4936815;29;20043;-80
2022/03/03 02:08:43;;;;;;;44.50;23.10;;;;;;;5.24;63.88;101125.84;4937706;29;20052;-80
2022/03/03 02:11:11;;;;;;;45.45;22.98;;;;;;;5.16;63.42;101120.75;4937282;29;20055;-80
2022/03/03 02:13:40;;;;;;;45.90;22.58;;;;;;;5.16;62.92;101118.03;4937900;29;20075;-80
2022/03/03 02:16:08;;;;;;;41.83;21.92;;;;;;;5.23;61.25;101117.94;4937814;29;20040;-80
2022/03/03 02:18:40;;;;;;;46.03;22.67;;;;;;;5.23;62.14;101117.94;4937338;29;20047;-80
2022/03/03 02:21:17;;;;;;;41.00;23.15;;;;;;;5.07;64.65;101103.13;4937347;29;20051;-80
2022/03/03 02:23:45;;;;;;;46.78;22.13;;;;;;;4.99;63.03;101104.28;4936743;29;20054;-79
2022/03/03 02:26:19;;;;;;;40.05;21.80;;;;;;;4.92;63.55;101100.81;4937036;29;20067;-80
2022/03/03 02:28:49;;;;;;;40.67;21.90;;;;;;;4.83;62.65;101098.44;4936821;29;20059;-80
2022/03/03 02:31:18;;;;;;;40.58;21.58;;;;;;;4.82;63.36;101104.91;4919966;29;20074;-80
2022/03/03 02:33:46;;;;;;;41.72;21.90;;;;;;;4.94;62.47;101104.97;4936353;29;20047;-80
2022/03/03 02:36:29;;;;;;;43.38;21.50;;;;;;;5.25;61.06;101104.97;4936649;29;20486;-80
2022/03/03 02:39:00;;;;;;;40.97;19.77;;;;;;;5.37;60.97;101096.84;4935716;29;20058;-80
2022/03/03 02:41:29;;;;;;;43.75;21.52;;;;;;;5.26;62.31;101093.06;4936820;29;20047;-80
2022/03/03 02:43:58;;;;;;;39.03;20.40;;;;;;;5.10;62.74;101091.81;4936134;29;20059;-80
2022/03/03 02:46:26;;;;;;;41.67;21.00;;;;;;;4.95;63.06;101092.25;4936773;29;20056;-80
2022/03/03 02:48:54;;;;;;;43.35;21.17;;;;;;;4.83;63.72;101087.59;4936462;29;20056;-80
2022/03/03 02:51:22;;;;;;;39.40;21.35;;;;;;;4.75;63.32;101087.06;4936338;29;20059;-80
2022/03/03 02:53:50;;;;;;;37.45;21.05;;;;;;;4.70;63.95;101076.91;4919760;29;20125;-80
2022/03/03 02:56:18;;;;;;;51.35;23.38;;;;;;;4.65;64.54;101087.63;4936099;29;20051;-80
2022/03/03 02:58:46;;;;;;;45.00;22.85;;;;;;;4.65;64.40;101087.63;4936036;29;20060;-80
2022/03/03 03:01:14;;;;;;;40.97;22.00;;;;;;;4.80;63.21;101093.44;4935838;29;20056;-80
2022/03/03 03:03:42;;;;;;;42.00;22.65;;;;;;;4.78;63.91;101079.31;4936339;29;20058;-79
2022/03/03 03:06:14;;;;;;;41.25;21.85;;;;;;;4.70;64.17;101088.56;4919133;29;20055;-80
2022/03/03 03:08:43;;;;;;;44.00;20.30;;;;;;;4.62;64.24;101077.22;4935766;29;20051;-79
2022/03/03 03:11:11;;;;;;;39.80;21.42;;;;;;;4.55;65.07;101067.28;4935464;29;20502;-80
2022/03/03 03:13:39;;;;;;;46.50;22.38;;;;;;;4.50;65.37;101077.97;4935625;29;20364;-80
2022/03/03 03:16:08;;;;;;;40.67;20.67;;;;;;;4.56;64.38;101081.66;4935625;29;20141;-80
2022/03/03 03:18:36;;;;;;;42.58;20.50;;;;;;;4.82;63.88;101071.53;4935565;29;20062;-80
2022/03/03 03:21:04;;;;;;;39.55;20.50;;;;;;;4.66;64.96;101071.13;4935529;29;20518;-80
2022/03/03 03:23:32;;;;;;;42.80;22.00;;;;;;;4.64;65.16;101069.69;4935269;29;20052;-80
2022/03/03 03:26:00;;;;;;;42.58;21.52;;;;;;;4.62;65.87;101075.34;4935964;29;20056;-80
2022/03/03 03:28:28;;;;;;;43.35;22.13;;;;;;;4.52;66.05;101064.19;4935590;29;20048;-80
2022/03/03 03:30:55;;;;;;;43.90;22.10;;;;;;;4.30;67.95;101059.22;4936507;29;20055;-80
2022/03/03 03:33:23;;;;;;;39.55;21.70;;;;;;;4.15;67.82;101055.03;4935704;29;20062;-80
2022/03/03 03:35:51;;;;;;;40.83;21.23;;;;;;;3.99;68.55;101056.44;4935969;29;20511;-80
2022/03/03 03:38:19;;;;;;;43.08;22.02;;;;;;;3.92;68.77;101052.16;4935375;29;20051;-80
2022/03/03 03:40:47;;;;;;;42.55;21.70;;;;;;;3.92;69.02;101044.84;4934914;29;20043;-79
2022/03/03 03:43:15;;;;;;;45.25;22.25;;;;;;;4.02;68.76;101047.84;4935838;29;20056;-80
2022/03/03 03:45:43;;;;;;;41.55;20.83;;;;;;;3.97;70.11;101041.47;4935523;29;20052;-80
2022/03/03 03:48:11;;;;;;;52.65;21.30;;;;;;;3.89;69.56;101048.00;4935426;29;20407;-80
2022/03/03 03:50:39;;;;;;;40.40;21.55;;;;;;;3.83;69.96;101036.19;4934323;29;20578;-80
2022/03/03 03:53:06;;;;;;;42.75;22.15;;;;;;;3.79;69.85;101039.56;4935234;29;20051;-80
2022/03/03 03:55:34;;;;;;;42.92;20.80;;;;;;;3.75;70.07;101034.59;4936334;29;20067;-80
2022/03/03 03:58:03;;;;;;;43.20;21.25;;;;;;;3.73;70.40;101035.88;4918009;29;20594;-80
2022/03/03 04:00:30;;;;;;;40.90;21.45;;;;;;;3.72;70.28;101043.16;4936259;29;20043;-80
2022/03/03 04:02:59;;;;;;;47.05;20.58;;;;;;;3.71;70.15;101036.09;4939507;29;20044;-80
2022/03/03 04:05:27;;;;;;;43.88;20.02;;;;;;;3.73;70.12;101031.25;4919238;29;20519;-80
2022/03/03 04:07:55;;;;;;;35.83;19.52;;;;;;;4.03;68.21;101035.16;4934738;29;20059;-80
2022/03/03 04:10:23;;;;;;;37.67;19.15;;;;;;;4.16;68.09;101028.78;4934497;29;20056;-80
2022/03/03 04:12:51;;;;;;;39.95;21.35;;;;;;;4.27;67.18;101028.03;4934446;29;20044;-80
2022/03/03 04:15:19;;;;;;;37.85;20.60;;;;;;;4.14;68.08;101030.88;4935009;29;20058;-80
2022/03/03 04:17:48;;;;;;;41.15;19.35;;;;;;;4.02;68.64;101031.59;4934733;29;20064;-80
2022/03/03 04:20:18;;;;;;;41.17;19.95;;;;;;;4.18;66.74;101029.38;4935009;29;20051;-80
2022/03/03 04:22:46;;;;;;;41.70;20.35;;;;;;;4.14;67.78;101014.59;4934850;29;20055;-80
2022/03/03 04:25:13;;;;;;;41.92;19.92;;;;;;;4.07;68.31;101024.69;4935849;29;20063;-80
2022/03/03 04:27:41;;;;;;;41.75;19.90;;;;;;;3.99;68.74;101018.53;4945967;29;20056;-77
2022/03/03 04:30:11;;;;;;;39.15;19.35;;;;;;;3.96;68.37;101016.25;4934734;29;20384;-80
2022/03/03 04:32:40;;;;;;;42.35;19.33;;;;;;;3.94;68.92;101010.25;4922403;29;20522;-80
2022/03/03 04:35:08;;;;;;;34.50;18.33;;;;;;;3.91;68.68;101013.38;4934865;29;20047;-80
2022/03/03 04:37:38;;;;;;;40.65;20.52;;;;;;;3.93;68.32;101018.59;4934490;29;20054;-80
2022/03/03 04:40:06;;;;;;;37.70;19.17;;;;;;;3.95;67.93;101016.50;4934915;29;20048;-80
2022/03/03 04:42:34;;;;;;;37.78;19.80;;;;;;;3.98;67.55;101016.88;4935515;29;20048;-80
2022/03/03 04:45:04;;;;;;;36.65;18.50;;;;;;;4.01;67.70;101000.16;4917938;29;20526;-80
2022/03/03 04:47:33;;;;;;;39.90;20.25;;;;;;;4.24;67.36;101004.06;4916990;29;20055;-80
2022/03/03 04:50:01;;;;;;;37.35;19.55;;;;;;;4.36;66.80;101009.56;4918122;29;20106;-80
2022/03/03 04:52:28;;;;;;;35.75;18.55;;;;;;;4.39;66.83;101013.69;4934356;29;20067;-80
2022/03/03 04:54:56;;;;;;;37.83;20.10;;;;;;;4.29;68.94;101001.53;4934230;29;20050;-80
2022/03/03 04:57:25;;;;;;;40.28;19.60;;;;;;;4.26;68.38;101001.16;4934106;29;20052;-80
2022/03/03 04:59:53;;;;;;;38.80;17.90;;;;;;;4.22;69.69;101006.19;4934722;29;20047;-80
2022/03/03 05:02:21;;;;;;;39.25;20.80;;;;;;;4.38;67.95;101003.91;4936930;29;20043;-80
2022/03/03 05:04:49;;;;;;;40.97;20.05;;;;;;;4.39;68.39;101000.97;4937743;29;20058;-80
2022/03/03 05:07:18;;;;;;;41.83;19.15;;;;;;;4.39;68.35;101005.56;4938195;29;20031;-81
2022/03/03 05:09:46;;;;;;;37.65;20.63;;;;;;;4.42;68.41;100997.81;4938990;29;20063;-80
2022/03/03 05:12:14;;;;;;;39.53;20.10;;;;;;;4.44;69.36;100997.56;4925915;29;20052;-80
2022/03/03 05:14:42;;;;;;;36.60;20.30;;;;;;;4.35;69.96;100998.97;4938159;29;20522;-80
2022/03/03 05:17:10;;;;;;;34.05;20.02;;;;;;;4.30;69.78;101005.03;4938211;29;20047;-80
2022/03/03 05:19:37;;;;;;;44.08;22.98;;;;;;;4.48;68.83;100996.06;4938286;29;20043;-80
2022/03/03 05:22:05;;;;;;;38.33;21.17;;;;;;;4.55;67.53;101009.53;4937928;29;20043;-80
2022/03/03 05:24:33;;;;;;;42.17;23.50;;;;;;;4.41;68.31;101006.19;4938055;29;20074;-80
2022/03/03 05:27:01;;;;;;;41.13;24.63;;;;;;;4.27;71.17;101000.94;4938744;29;20048;-79
2022/03/03 05:29:29;;;;;;;44.67;23.50;;;;;;;4.18;69.98;101002.28;4938409;29;20138;-81
2022/03/03 05:31:58;;;;;;;41.30;24.48;;;;;;;4.17;70.99;101008.75;4938092;29;20052;-81
2022/03/03 05:34:26;;;;;;;44.63;24.55;;;;;;;4.17;69.88;100996.03;4921967;29;20399;-81
2022/03/03 05:36:54;;;;;;;50.72;25.77;;;;;;;4.19;69.37;101003.13;4938578;29;20047;-81
2022/03/03 05:39:23;;;;;;;46.70;25.60;;;;;;;4.17;68.87;100992.50;4938052;29;20398;-81
2022/03/03 05:41:54;;;;;;;41.10;22.00;;;;;;;4.22;68.52;101002.66;4937603;29;20044;-81
2022/03/03 05:44:24;;;;;;;39.20;20.63;;;;;;;4.22;69.11;101000.78;4936966;29;20035;-82
2022/03/03 05:46:52;;;;;;;39.65;20.90;;;;;;;4.28;67.98;101021.53;4937921;29;20055;-81
2022/03/03 05:49:22;;;;;;;35.42;18.90;;;;;;;4.29;68.15;101011.50;4937901;29;20059;-81
2022/03/03 05:51:50;;;;;;;37.20;19.17;;;;;;;4.26;68.29;101018.22;4936547;29;20067;-81
2022/03/03 05:54:18;;;;;;;38.65;20.13;;;;;;;4.26;68.27;101023.63;4936804;29;20495;-81
2022/03/03 05:56:48;;;;;;;41.03;19.27;;;;;;;4.29;67.12;101022.34;4937428;29;20055;-81
2022/03/03 05:59:17;;;;;;;41.58;20.08;;;;;;;4.47;65.83;101026.09;4936941;29;20426;-81
2022/03/03 06:01:45;;;;;;;35.33;19.15;;;;;;;4.50;66.16;101033.78;4935277;29;20514;-81
2022/03/03 06:04:15;;;;;;;40.85;19.98;;;;;;;4.53;64.64;101033.31;4937365;29;20117;-80
2022/03/03 06:07:05;;;;;;;42.58;21.77;;;;;;;4.60;64.74;101039.50;4937953;29;20060;-77
2022/03/03 06:09:35;;;;;;;42.55;21.95;;;;;;;4.66;65.15;101044.03;4937564;29;20113;-78
2022/03/03 06:12:02;;;;;;;48.97;23.23;;;;;;;4.55;65.98;101045.59;4936867;29;20055;-78
2022/03/03 06:14:38;;;;;;;41.88;22.20;;;;;;;4.47;66.00;101036.94;4936581;29;20052;-80
2022/03/03 06:17:07;;;;;;;39.88;20.58;;;;;;;4.63;65.52;101049.03;4932057;29;20058;-79
2022/03/03 06:19:40;;;;;;;52.50;22.65;;;;;;;4.50;66.83;101050.06;4935885;29;20143;-78
2022/03/03 06:22:09;;;;;;;43.42;20.92;;;;;;;4.49;67.79;101048.41;4935774;29;20051;-81
2022/03/03 06:24:37;;;;;;;47.33;23.42;;;;;;;4.71;67.06;101051.47;4895663;29;20052;-82
2022/03/03 06:27:07;;;;;;;38.80;21.58;;;;;;;4.87;66.14;101054.56;4902382;29;20039;-83
2022/03/03 06:29:36;;;;;;;45.00;22.95;;;;;;;5.03;66.04;101053.13;4901729;29;20044;-82
2022/03/03 06:32:05;;;;;;;42.78;22.45;;;;;;;5.07;65.73;101049.69;4897002;29;20695;-81
2022/03/03 06:34:33;;;;;;;43.30;22.33;;;;;;;5.31;65.08;101044.34;4900362;29;20479;-81
2022/03/03 06:37:01;;;;;;;42.10;23.70;;;;;;;5.32;64.06;101053.31;4900643;29;20039;-81
2022/03/03 06:39:29;;;;;;;43.95;23.13;;;;;;;5.22;64.44;101045.72;4916226;29;20051;-81
2022/03/03 06:41:57;;;;;;;41.28;22.70;;;;;;;5.20;64.61;101058.69;4934768;29;20044;-80
2022/03/03 06:44:25;;;;;;;42.90;23.33;;;;;;;5.32;63.77;101056.03;4934982;29;20483;-81
2022/03/03 06:46:53;;;;;;;46.33;22.95;;;;;;;5.15;63.31;101072.13;4935977;29;20047;-79
2022/03/03 06:49:21;;;;;;;46.42;24.40;;;;;;;4.97;64.45;101065.69;4935765;29;20043;-79
2022/03/03 06:51:54;;;;;;;41.33;23.25;;;;;;;4.93;64.86;101070.75;4935146;29;20048;-79
2022/03/03 06:54:23;;;;;;;50.92;23.90;;;;;;;5.00;63.40;101070.69;4917949;29;20050;-78
2022/03/03 06:56:56;;;;;;;42.13;23.60;;;;;;;5.29;63.29;101056.47;4933863;29;20047;-79
2022/03/03 06:59:27;;;;;;;42.78;21.90;;;;;;;5.49;61.46;101072.44;4931961;29;20044;-79
2022/03/03 07:01:56;;;;;;;43.53;23.63;;;;;;;5.72;61.01;101071.63;4934317;29;20062;-78
2022/03/03 07:04:24;;;;;;;43.15;23.15;;;;;;;6.28;57.55;101073.19;4933941;29;20063;-79
2022/03/03 07:06:52;;;;;;;45.20;23.15;;;;;;;6.50;56.96;101075.28;4934629;29;20032;-79
2022/03/03 07:09:20;;;;;;;42.38;23.02;;;;;;;6.62;55.99;101078.81;4934293;29;20050;-78
2022/03/03 07:11:49;;;;;;;45.58;22.83;;;;;;;6.42;57.43;101076.47;4916441;29;20052;-78
2022/03/03 07:14:18;;;;;;;45.67;23.13;;;;;;;6.45;59.09;101070.56;4933106;29;20064;-78
2022/03/03 07:17:05;;;;;;;45.38;23.67;;;;;;;6.56;57.03;101075.13;4934872;29;20048;-77
2022/03/03 07:19:38;;;;;;;46.13;22.80;;;;;;;6.60;56.92;101089.06;4932884;29;20059;-78
2022/03/03 07:22:26;;;;;;;41.88;23.83;;;;;;;6.75;55.87;101074.16;4934456;29;20048;-78
2022/03/03 07:25:02;;;;;;;44.92;23.58;;;;;;;7.01;56.37;101080.06;4933399;29;20395;-80
2022/03/03 07:27:31;;;;;;;46.40;25.08;;;;;;;7.15;55.29;101076.00;4934893;29;20052;-80
2022/03/03 07:30:08;;;;;;;42.42;24.50;;;;;;;7.32;53.78;101080.63;4918096;29;20718;-80
2022/03/03 07:32:47;;;;;;;41.15;23.48;;;;;;;7.53;53.12;101082.63;4935168;29;20058;-80
2022/03/03 07:35:15;;;;;;;42.08;24.63;;;;;;;7.89;51.54;101081.53;4936052;29;20062;-78
2022/03/03 07:37:56;;;;;;;43.25;23.52;;;;;;;7.76;53.28;101082.69;4933618;29;20059;-80
2022/03/03 07:40:29;;;;;;;41.95;23.05;;;;;;;8.34;53.13;101085.19;4935570;29;20047;-80
2022/03/03 07:42:59;;;;;;;42.83;24.45;;;;;;;8.29;51.92;101088.66;4918140;29;20506;-77
2022/03/03 07:45:29;;;;;;;45.40;24.58;;;;;;;8.33;50.89;101078.06;4932220;29;20774;-79
2022/03/03 07:47:57;;;;;;;42.45;21.73;;;;;;;8.67;50.33;101077.16;4933463;29;20717;-79
2022/03/03 07:50:27;;;;;;;43.50;23.10;;;;;;;8.80;48.68;101082.22;4932737;29;20055;-79
2022/03/03 07:52:56;;;;;;;42.50;23.83;;;;;;;8.62;49.45;101079.81;4933323;29;20059;-79
2022/03/03 07:55:24;;;;;;;47.35;28.42;;;;;;;8.91;50.08;101085.06;4934391;29;20055;-79
2022/03/03 07:58:00;;;;;;;55.17;30.35;;;;;;;9.26;49.11;101078.31;4934216;29;20048;-79
2022/03/03 08:00:31;;;;;;;51.65;28.05;;;;;;;8.93;49.76;101080.16;4934727;29;20061;-79
2022/03/03 08:03:01;;;;;;;47.40;27.67;;;;;;;9.09;49.04;101084.72;4935068;29;20067;-79
2022/03/03 08:05:29;;;;;;;48.90;27.52;;;;;;;9.13;47.94;101080.38;4934702;29;20048;-79
2022/03/03 08:08:01;;;;;;;49.10;28.20;;;;;;;9.22;48.34;101079.91;4934540;29;20074;-79
2022/03/03 08:10:31;;;;;;;54.00;29.50;;;;;;;9.62;47.53;101073.16;4934936;29;20048;-78
2022/03/03 08:12:59;;;;;;;46.30;27.23;;;;;;;10.06;46.03;101074.00;4935686;29;20048;-78
2022/03/03 08:15:27;;;;;;;48.20;28.27;;;;;;;9.67;46.53;101067.75;4934903;29;20054;-79
2022/03/03 08:17:55;;;;;;;46.83;28.77;;;;;;;9.27;46.75;101066.31;4934285;29;20052;-80
2022/03/03 08:20:23;;;;;;;46.55;26.27;;;;;;;9.30;47.54;101074.00;4934231;29;20063;-79
2022/03/03 08:22:51;;;;;;;46.88;28.23;;;;;;;9.02;47.51;101070.44;4934776;29;20055;-79
2022/03/03 08:25:19;;;;;;;48.65;27.42;;;;;;;9.55;47.78;101065.19;4934525;29;20052;-79
2022/03/03 08:27:47;;;;;;;50.60;28.75;;;;;;;9.86;45.88;101069.22;4934644;29;20403;-79
2022/03/03 08:30:15;;;;;;;47.97;28.40;;;;;;;10.30;46.46;101068.94;4935601;29;20040;-79
2022/03/03 08:32:59;;;;;;;44.70;25.83;;;;;;;10.51;44.91;101074.53;4934594;29;20060;-78
2022/03/03 08:35:31;;;;;;;48.97;28.60;;;;;;;10.82;43.76;101062.88;4948340;29;20055;-78
2022/03/03 08:38:16;;;;;;;47.50;28.30;;;;;;;10.50;43.28;101056.47;4934625;29;20047;-79
2022/03/03 08:40:45;;;;;;;49.22;28.95;;;;;;;10.41;44.47;101053.41;4934467;29;20063;-79
2022/03/03 08:43:16;;;;;;;52.35;30.15;;;;;;;10.38;43.53;101039.44;4934397;29;20059;-79
2022/03/03 08:45:45;;;;;;;54.30;29.65;;;;;;;10.03;44.42;101044.47;4934810;29;20055;-79
2022/03/03 08:48:14;;;;;;;51.00;29.40;;;;;;;10.49;44.46;101049.34;4934735;29;20048;-79
2022/03/03 08:50:43;;;;;;;49.20;27.17;;;;;;;10.34;42.82;101044.63;4934413;29;20060;-79
2022/03/03 08:53:11;;;;;;;50.60;26.98;;;;;;;10.32;42.78;101065.94;4934671;29;20059;-79
2022/03/03 08:55:40;;;;;;;53.08;27.92;;;;;;;10.52;42.66;101057.03;4934701;29;20132;-79
2022/03/03 08:58:10;;;;;;;46.67;27.15;;;;;;;10.83;42.17;101053.56;4934091;29;20059;-78
2022/03/03 09:00:38;;;;;;;49.03;27.17;;;;;;;11.24;41.90;101050.09;4934435;29;20064;-79
2022/03/03 09:03:07;;;;;;;46.72;26.85;;;;;;;11.13;41.47;101046.50;4935552;29;20047;-78
2022/03/03 09:05:35;;;;;;;48.00;27.75;;;;;;;11.19;39.59;101052.81;4933867;29;20056;-78
2022/03/03 09:08:03;;;;;;;46.95;27.08;;;;;;;11.50;39.18;101044.59;4933529;29;20051;-78
2022/03/03 09:10:31;;;;;;;47.17;27.58;;;;;;;11.35;40.30;101046.22;4934407;29;20055;-79
2022/03/03 09:13:00;;;;;;;51.50;28.40;;;;;;;11.35;40.74;101048.16;4934470;29;20060;-79
2022/03/03 09:15:30;;;;;;;54.95;28.30;;;;;;;11.18;40.45;101043.78;4934473;29;20039;-79
2022/03/03 09:17:58;;;;;;;47.88;27.85;;;;;;;10.94;40.75;101052.50;4934130;29;20048;-79
2022/03/03 09:20:27;;;;;;;48.08;27.98;;;;;;;10.99;41.90;101052.50;4934140;29;20044;-78
2022/03/03 09:22:55;;;;;;;48.65;29.25;;;;;;;10.81;40.63;101051.09;4935237;29;20063;-78
2022/03/03 09:25:23;;;;;;;48.20;26.70;;;;;;;10.55;42.46;101042.81;4933614;29;20047;-78
2022/03/03 09:27:51;;;;;;;46.85;27.55;;;;;;;10.43;42.62;101045.78;4934369;29;20404;-78
2022/03/03 09:30:21;;;;;;;48.50;26.90;;;;;;;10.48;42.14;101042.25;4934414;29;20411;-78
2022/03/03 09:32:49;;;;;;;46.90;26.60;;;;;;;10.82;42.67;101038.25;4934259;29;20079;-79
2022/03/03 09:35:17;;;;;;;45.85;25.80;;;;;;;11.34;40.03;101035.56;4930901;29;20051;-78
2022/03/03 09:37:46;;;;;;;43.67;25.30;;;;;;;10.81;42.36;101031.13;4921412;29;20056;-78
2022/03/03 09:40:14;;;;;;;47.42;27.88;;;;;;;11.37;41.35;101024.03;4934171;29;20048;-78
2022/03/03 09:43:01;;;;;;;48.72;26.27;;;;;;;11.49;39.93;101034.75;4934421;29;20063;-79
2022/03/03 09:45:29;;;;;;;44.65;25.23;;;;;;;11.38;40.55;101026.50;4933605;29;20056;-78
2022/03/03 09:47:59;;;;;;;48.25;26.48;;;;;;;11.41;39.01;101033.38;4921629;29;20067;-79
2022/03/03 09:50:27;;;;;;;44.42;25.40;;;;;;;11.82;39.18;101016.03;4937171;29;20056;-79
2022/03/03 09:52:56;;;;;;;50.88;27.23;;;;;;;11.40;38.33;101024.31;4936786;29;20063;-79
2022/03/03 09:55:24;;;;;;;44.30;26.23;;;;;;;11.72;40.53;101019.63;4937018;29;20055;-79
2022/03/03 09:57:52;;;;;;;40.08;24.65;;;;;;;11.96;38.29;101025.34;4937424;29;20055;-78
2022/03/03 10:00:20;;;;;;;43.00;25.48;;;;;;;11.59;39.39;101015.53;4937944;29;20043;-79
2022/03/03 10:03:16;;;;;;;43.20;25.60;;;;;;;11.55;37.47;101009.78;4937567;29;20051;-79
2022/03/03 10:05:48;;;;;;;45.17;24.73;;;;;;;12.13;38.01;101016.00;4936250;29;20051;-79
2022/03/03 10:08:21;;;;;;;45.60;26.75;;;;;;;11.88;38.99;101003.16;4937157;29;20051;-79
2022/03/03 10:10:52;;;;;;;48.33;26.90;;;;;;;12.30;38.04;101007.44;4936892;29;20063;-79
2022/03/03 10:13:20;;;;;;;47.13;25.60;;;;;;;12.32;38.68;101002.47;4936603;29;20063;-79
2022/03/03 10:15:56;;;;;;;45.85;25.98;;;;;;;12.22;38.52;100997.84;4935813;29;20055;-79
2022/03/03 10:18:25;;;;;;;45.60;25.95;;;;;;;11.91;38.88;100997.94;4936577;29;20055;-79
2022/03/03 10:20:55;;;;;;;43.05;25.85;;;;;;;11.96;40.21;100995.19;4936387;29;20048;-79
2022/03/03 10:23:29;;;;;;;47.97;27.10;;;;;;;12.25;38.70;100992.88;4936558;29;20052;-79
2022/03/03 10:26:00;;;;;;;46.10;27.00;;;;;;;12.57;38.48;100992.47;4938126;29;20048;-79
2022/03/03 10:28:31;;;;;;;43.67;25.88;;;;;;;12.40;37.76;100989.25;4936713;29;20052;-79
2022/03/03 10:31:08;;;;;;;42.78;26.08;;;;;;;12.48;38.54;100988.69;4936651;29;20059;-79
2022/03/03 10:33:39;;;;;;;42.38;25.00;;;;;;;12.68;37.70;100987.75;4937398;29;20423;-79
2022/03/03 10:36:15;;;;;;;48.78;26.88;;;;;;;12.04;38.13;100982.00;4937373;29;20048;-79
2022/03/03 10:38:49;;;;;;;49.80;26.50;;;;;;;12.21;38.21;100978.91;4937669;29;20060;-79
2022/03/03 10:41:35;;;;;;;;;;;;;;;12.35;38.31;100973.63;4936979;29;20048;-78
2022/03/03 10:44:12;;;;;;;46.22;25.80;;;;;;;12.50;37.46;100972.75;4935931;29;19945;-79
2022/03/03 10:47:04;;;;;;;44.83;26.90;;;;;;;12.20;38.15;100966.31;4937008;29;20401;-78
2022/03/03 10:49:34;;;;;;;46.75;27.73;;;;;;;12.44;38.97;100957.41;4936502;29;20052;-79
2022/03/03 10:52:21;;;;;;;44.47;25.88;;;;;;;12.76;37.35;100947.88;4937050;29;20067;-79
2022/03/03 10:55:10;;;;;;;45.55;26.30;;;;;;;12.86;38.74;100949.72;4923669;29;20051;-79
2022/03/03 10:57:40;;;;;;;45.50;25.85;;;;;;;13.13;35.82;100953.88;4936036;29;20059;-79
2022/03/03 11:00:12;;;;;;;41.45;23.42;;;;;;;13.75;34.80;100944.25;4934820;29;20051;-79
2022/03/03 11:02:46;;;;;;;43.58;25.58;;;;;;;13.74;35.58;100950.88;4934311;29;20059;-79
2022/03/03 11:05:16;;;;;;;44.42;26.38;;;;;;;13.47;34.52;100942.06;4935808;29;20530;-80
2022/03/03 11:07:46;;;;;;;45.25;27.15;;;;;;;13.39;35.24;100932.47;4935710;29;20055;-80
2022/03/03 11:10:16;;;;;;;46.53;26.20;;;;;;;13.42;35.96;100922.84;4936479;29;20050;-79
2022/03/03 11:12:45;;;;;;;44.53;27.58;;;;;;;13.56;36.14;100917.50;4935535;29;20067;-79
2022/03/03 11:15:15;;;;;;;48.72;27.63;;;;;;;13.10;37.47;100922.31;4935758;29;20073;-79
2022/03/03 11:17:44;;;;;;;49.30;28.67;;;;;;;13.04;37.35;100915.22;4936404;29;20044;-80
2022/03/03 11:20:17;;;;;;;49.17;27.98;;;;;;;13.39;36.53;100909.69;4935731;29;20060;-80
2022/03/03 11:22:46;;;;;;;47.65;26.17;;;;;;;13.10;36.83;100908.56;4935836;29;20518;-80
2022/03/03 11:25:31;;;;;;;51.72;30.17;;;;;;;13.86;35.05;100901.75;4919567;29;20062;-80